Lake Tahoe, California
Current Conditions -  °F | °C
As of 6:39 PM on Thursday 20 Nov 2014 (Local Time) from KTVL Reporting Station
Light Snow Light Snow  
Wind Chill:   Ceiling: 1400
Heat Index:   Visibility: 2.5mi
Dew Point: -1°   Wind: 0mph
Humidity: 82%   Direction: NA
Pressure: 29.99"   Gusts: NA
Location:  38.9°N, 120°W
Report Text: KTVL 210239Z AUTO 00000KT 2 1/2SM -SN OVC014 02/M01 A2999 RMK AO2 RAE15SNB15 P0003 T00221006
Loading
Personal Weather Stations






























Interactive Weather Map New forecast layout! Learn more

10-Day Weather Forecast

Advertisements
Track Severe Weather on mobile